sensor_id;sensor_type;location;lat;lon;timestamp;P1;durP1;ratioP1;P2;durP2;ratioP2
76863;SDS011;65834;52.364;9.754;2023-06-04T00:02:09;3.72;;;1.60;;
76863;SDS011;65834;52.364;9.754;2023-06-04T00:04:40;5.03;;;1.63;;
76863;SDS011;65834;52.364;9.754;2023-06-04T00:07:09;4.53;;;1.58;;
76863;SDS011;65834;52.364;9.754;2023-06-04T00:09:39;3.63;;;1.80;;
76863;SDS011;65834;52.364;9.754;2023-06-04T00:12:09;5.53;;;1.70;;
76863;SDS011;65834;52.364;9.754;2023-06-04T00:14:38;4.10;;;1.60;;
76863;SDS011;65834;52.364;9.754;2023-06-04T00:17:11;5.50;;;1.55;;
76863;SDS011;65834;52.364;9.754;2023-06-04T00:19:40;3.00;;;1.50;;
76863;SDS011;65834;52.364;9.754;2023-06-04T00:22:10;5.32;;;1.70;;
76863;SDS011;65834;52.364;9.754;2023-06-04T00:24:40;3.38;;;1.50;;
76863;SDS011;65834;52.364;9.754;2023-06-04T00:27:09;4.38;;;1.75;;
76863;SDS011;65834;52.364;9.754;2023-06-04T00:29:39;4.60;;;1.52;;
76863;SDS011;65834;52.364;9.754;2023-06-04T00:32:11;4.07;;;1.60;;
76863;SDS011;65834;52.364;9.754;2023-06-04T00:34:41;5.07;;;1.42;;
76863;SDS011;65834;52.364;9.754;2023-06-04T00:37:10;4.23;;;1.40;;
76863;SDS011;65834;52.364;9.754;2023-06-04T00:39:40;5.90;;;1.58;;
76863;SDS011;65834;52.364;9.754;2023-06-04T00:42:09;6.15;;;1.58;;
76863;SDS011;65834;52.364;9.754;2023-06-04T00:44:39;4.07;;;1.63;;
76863;SDS011;65834;52.364;9.754;2023-06-04T00:47:13;4.77;;;1.70;;
76863;SDS011;65834;52.364;9.754;2023-06-04T00:49:44;4.63;;;1.60;;
76863;SDS011;65834;52.364;9.754;2023-06-04T00:52:14;4.27;;;1.70;;
76863;SDS011;65834;52.364;9.754;2023-06-04T00:54:44;3.90;;;1.93;;
76863;SDS011;65834;52.364;9.754;2023-06-04T00:57:14;2.73;;;1.50;;
76863;SDS011;65834;52.364;9.754;2023-06-04T00:59:44;3.97;;;1.80;;
76863;SDS011;65834;52.364;9.754;2023-06-04T01:02:16;4.60;;;1.80;;
76863;SDS011;65834;52.364;9.754;2023-06-04T01:04:50;4.38;;;1.48;;
76863;SDS011;65834;52.364;9.754;2023-06-04T01:07:27;4.53;;;1.83;;
76863;SDS011;65834;52.364;9.754;2023-06-04T01:09:57;4.03;;;1.63;;
76863;SDS011;65834;52.364;9.754;2023-06-04T01:12:26;5.33;;;1.80;;
76863;SDS011;65834;52.364;9.754;2023-06-04T01:14:57;4.60;;;2.10;;
76863;SDS011;65834;52.364;9.754;2023-06-04T01:17:31;5.77;;;2.00;;
76863;SDS011;65834;52.364;9.754;2023-06-04T01:20:16;5.50;;;1.90;;
76863;SDS011;65834;52.364;9.754;2023-06-04T01:23:05;5.67;;;1.90;;
76863;SDS011;65834;52.364;9.754;2023-06-04T01:26:00;7.23;;;1.83;;
76863;SDS011;65834;52.364;9.754;2023-06-04T01:28:32;6.10;;;1.80;;
76863;SDS011;65834;52.364;9.754;2023-06-04T01:31:04;5.18;;;1.80;;
76863;SDS011;65834;52.364;9.754;2023-06-04T01:33:38;4.80;;;1.73;;
76863;SDS011;65834;52.364;9.754;2023-06-04T01:36:08;6.38;;;2.20;;
76863;SDS011;65834;52.364;9.754;2023-06-04T01:38:46;3.60;;;1.37;;
76863;SDS011;65834;52.364;9.754;2023-06-04T01:41:16;5.97;;;1.73;;
76863;SDS011;65834;52.364;9.754;2023-06-04T01:43:46;7.83;;;2.10;;
76863;SDS011;65834;52.364;9.754;2023-06-04T01:46:16;4.67;;;1.70;;
76863;SDS011;65834;52.364;9.754;2023-06-04T01:48:48;5.87;;;1.83;;
76863;SDS011;65834;52.364;9.754;2023-06-04T01:51:18;6.22;;;1.65;;
76863;SDS011;65834;52.364;9.754;2023-06-04T01:53:47;4.73;;;1.90;;
76863;SDS011;65834;52.364;9.754;2023-06-04T01:56:17;4.60;;;1.87;;
76863;SDS011;65834;52.364;9.754;2023-06-04T01:58:47;4.70;;;1.77;;
76863;SDS011;65834;52.364;9.754;2023-06-04T02:01:17;5.00;;;1.63;;
76863;SDS011;65834;52.364;9.754;2023-06-04T02:03:49;6.27;;;1.70;;
76863;SDS011;65834;52.364;9.754;2023-06-04T02:06:19;4.30;;;1.50;;
76863;SDS011;65834;52.364;9.754;2023-06-04T02:08:51;2.63;;;1.50;;
76863;SDS011;65834;52.364;9.754;2023-06-04T02:11:21;4.00;;;1.77;;
76863;SDS011;65834;52.364;9.754;2023-06-04T02:13:51;3.53;;;1.60;;
76863;SDS011;65834;52.364;9.754;2023-06-04T02:16:21;4.53;;;1.83;;
76863;SDS011;65834;52.364;9.754;2023-06-04T02:18:53;3.33;;;1.50;;
76863;SDS011;65834;52.364;9.754;2023-06-04T02:21:23;3.83;;;1.60;;
76863;SDS011;65834;52.364;9.754;2023-06-04T02:23:52;6.90;;;1.70;;
76863;SDS011;65834;52.364;9.754;2023-06-04T02:26:22;5.20;;;1.90;;
76863;SDS011;65834;52.364;9.754;2023-06-04T02:28:52;5.17;;;1.80;;
76863;SDS011;65834;52.364;9.754;2023-06-04T02:31:21;6.90;;;1.93;;
76863;SDS011;65834;52.364;9.754;2023-06-04T02:33:55;3.90;;;1.50;;
76863;SDS011;65834;52.364;9.754;2023-06-04T02:36:25;5.90;;;1.87;;
76863;SDS011;65834;52.364;9.754;2023-06-04T02:38:54;1.73;;;1.30;;
76863;SDS011;65834;52.364;9.754;2023-06-04T02:41:24;2.67;;;1.50;;
76863;SDS011;65834;52.364;9.754;2023-06-04T02:43:54;4.97;;;1.63;;
76863;SDS011;65834;52.364;9.754;2023-06-04T02:46:23;4.03;;;1.67;;
76863;SDS011;65834;52.364;9.754;2023-06-04T02:48:56;5.67;;;1.70;;
76863;SDS011;65834;52.364;9.754;2023-06-04T02:51:25;4.97;;;1.95;;
76863;SDS011;65834;52.364;9.754;2023-06-04T02:53:55;6.10;;;1.90;;
76863;SDS011;65834;52.364;9.754;2023-06-04T02:56:25;6.97;;;2.03;;
76863;SDS011;65834;52.364;9.754;2023-06-04T02:58:54;7.67;;;2.37;;
76863;SDS011;65834;52.364;9.754;2023-06-04T03:01:25;5.53;;;2.00;;
76863;SDS011;65834;52.364;9.754;2023-06-04T03:03:58;7.47;;;2.30;;
76863;SDS011;65834;52.364;9.754;2023-06-04T03:06:30;6.40;;;1.90;;
76863;SDS011;65834;52.364;9.754;2023-06-04T03:09:01;6.57;;;1.70;;
76863;SDS011;65834;52.364;9.754;2023-06-04T03:11:30;6.10;;;1.80;;
76863;SDS011;65834;52.364;9.754;2023-06-04T03:14:00;7.93;;;2.30;;
76863;SDS011;65834;52.364;9.754;2023-06-04T03:16:31;5.63;;;1.97;;
76863;SDS011;65834;52.364;9.754;2023-06-04T03:19:03;7.53;;;2.03;;
76863;SDS011;65834;52.364;9.754;2023-06-04T03:21:32;4.78;;;1.75;;
76863;SDS011;65834;52.364;9.754;2023-06-04T03:24:02;5.33;;;2.17;;
76863;SDS011;65834;52.364;9.754;2023-06-04T03:26:32;5.67;;;2.17;;
76863;SDS011;65834;52.364;9.754;2023-06-04T03:29:01;4.33;;;1.60;;
76863;SDS011;65834;52.364;9.754;2023-06-04T03:31:31;7.97;;;2.40;;
76863;SDS011;65834;52.364;9.754;2023-06-04T03:34:03;6.90;;;2.07;;
76863;SDS011;65834;52.364;9.754;2023-06-04T03:36:33;6.15;;;1.80;;
76863;SDS011;65834;52.364;9.754;2023-06-04T03:39:05;6.72;;;2.17;;
76863;SDS011;65834;52.364;9.754;2023-06-04T03:41:35;5.37;;;1.97;;
76863;SDS011;65834;52.364;9.754;2023-06-04T03:44:06;8.87;;;2.30;;
76863;SDS011;65834;52.364;9.754;2023-06-04T03:46:35;8.20;;;2.20;;
76863;SDS011;65834;52.364;9.754;2023-06-04T03:49:08;7.17;;;2.77;;
76863;SDS011;65834;52.364;9.754;2023-06-04T03:51:38;8.27;;;2.50;;
76863;SDS011;65834;52.364;9.754;2023-06-04T03:54:08;5.27;;;2.00;;
76863;SDS011;65834;52.364;9.754;2023-06-04T03:56:38;6.30;;;2.20;;
76863;SDS011;65834;52.364;9.754;2023-06-04T03:59:10;7.63;;;2.60;;
76863;SDS011;65834;52.364;9.754;2023-06-04T04:01:41;6.53;;;2.20;;
76863;SDS011;65834;52.364;9.754;2023-06-04T04:04:14;7.57;;;2.10;;
76863;SDS011;65834;52.364;9.754;2023-06-04T04:06:44;7.35;;;2.53;;
76863;SDS011;65834;52.364;9.754;2023-06-04T04:09:14;7.10;;;2.00;;
76863;SDS011;65834;52.364;9.754;2023-06-04T04:11:43;5.40;;;2.20;;
76863;SDS011;65834;52.364;9.754;2023-06-04T04:14:13;6.30;;;1.90;;
76863;SDS011;65834;52.364;9.754;2023-06-04T04:16:43;5.17;;;2.20;;
76863;SDS011;65834;52.364;9.754;2023-06-04T04:19:16;5.63;;;2.37;;
76863;SDS011;65834;52.364;9.754;2023-06-04T04:21:45;7.28;;;2.70;;
76863;SDS011;65834;52.364;9.754;2023-06-04T04:24:23;6.13;;;2.10;;
76863;SDS011;65834;52.364;9.754;2023-06-04T04:26:58;7.90;;;2.47;;
76863;SDS011;65834;52.364;9.754;2023-06-04T04:29:31;6.35;;;2.00;;
76863;SDS011;65834;52.364;9.754;2023-06-04T04:32:02;7.20;;;2.40;;
76863;SDS011;65834;52.364;9.754;2023-06-04T04:34:49;5.57;;;2.27;;
76863;SDS011;65834;52.364;9.754;2023-06-04T04:37:30;6.03;;;2.40;;
76863;SDS011;65834;52.364;9.754;2023-06-04T04:39:59;6.27;;;2.47;;
76863;SDS011;65834;52.364;9.754;2023-06-04T04:42:32;5.40;;;2.40;;
76863;SDS011;65834;52.364;9.754;2023-06-04T04:45:04;5.83;;;2.00;;
76863;SDS011;65834;52.364;9.754;2023-06-04T04:47:35;6.90;;;2.13;;
76863;SDS011;65834;52.364;9.754;2023-06-04T04:50:07;5.63;;;2.17;;
76863;SDS011;65834;52.364;9.754;2023-06-04T04:52:37;5.00;;;1.92;;
76863;SDS011;65834;52.364;9.754;2023-06-04T04:55:07;5.03;;;2.10;;
76863;SDS011;65834;52.364;9.754;2023-06-04T04:57:39;7.13;;;2.30;;
76863;SDS011;65834;52.364;9.754;2023-06-04T05:00:10;5.13;;;1.90;;
76863;SDS011;65834;52.364;9.754;2023-06-04T05:02:43;5.63;;;1.90;;
76863;SDS011;65834;52.364;9.754;2023-06-04T05:05:16;7.47;;;2.03;;
76863;SDS011;65834;52.364;9.754;2023-06-04T05:07:47;5.73;;;2.07;;
76863;SDS011;65834;52.364;9.754;2023-06-04T05:10:20;6.03;;;2.00;;
76863;SDS011;65834;52.364;9.754;2023-06-04T05:12:50;6.47;;;2.00;;
76863;SDS011;65834;52.364;9.754;2023-06-04T05:15:24;4.73;;;1.87;;
76863;SDS011;65834;52.364;9.754;2023-06-04T05:17:56;5.55;;;1.85;;
76863;SDS011;65834;52.364;9.754;2023-06-04T05:20:33;4.73;;;1.60;;
76863;SDS011;65834;52.364;9.754;2023-06-04T05:23:08;4.43;;;1.70;;
76863;SDS011;65834;52.364;9.754;2023-06-04T05:25:40;5.25;;;2.00;;
76863;SDS011;65834;52.364;9.754;2023-06-04T05:28:10;4.43;;;1.60;;
76863;SDS011;65834;52.364;9.754;2023-06-04T05:30:40;4.80;;;2.10;;
76863;SDS011;65834;52.364;9.754;2023-06-04T05:33:11;4.13;;;1.80;;
76863;SDS011;65834;52.364;9.754;2023-06-04T05:35:53;4.73;;;1.70;;
76863;SDS011;65834;52.364;9.754;2023-06-04T05:38:26;3.63;;;1.60;;
76863;SDS011;65834;52.364;9.754;2023-06-04T05:41:02;5.40;;;1.67;;
76863;SDS011;65834;52.364;9.754;2023-06-04T05:43:35;4.80;;;1.80;;
76863;SDS011;65834;52.364;9.754;2023-06-04T05:46:06;3.13;;;1.50;;
76863;SDS011;65834;52.364;9.754;2023-06-04T05:48:38;4.30;;;1.60;;
76863;SDS011;65834;52.364;9.754;2023-06-04T05:51:10;5.93;;;2.47;;
76863;SDS011;65834;52.364;9.754;2023-06-04T05:53:42;5.33;;;1.50;;
76863;SDS011;65834;52.364;9.754;2023-06-04T05:56:12;4.47;;;1.97;;
76863;SDS011;65834;52.364;9.754;2023-06-04T05:58:44;3.33;;;1.63;;
76863;SDS011;65834;52.364;9.754;2023-06-04T06:01:13;6.13;;;1.50;;
76863;SDS011;65834;52.364;9.754;2023-06-04T06:03:43;3.87;;;1.50;;
76863;SDS011;65834;52.364;9.754;2023-06-04T06:06:15;5.07;;;1.77;;
76863;SDS011;65834;52.364;9.754;2023-06-04T06:08:47;4.23;;;1.70;;
76863;SDS011;65834;52.364;9.754;2023-06-04T06:11:17;5.30;;;1.90;;
76863;SDS011;65834;52.364;9.754;2023-06-04T06:13:47;6.67;;;2.07;;
76863;SDS011;65834;52.364;9.754;2023-06-04T06:16:17;5.10;;;1.67;;
76863;SDS011;65834;52.364;9.754;2023-06-04T06:18:47;4.50;;;1.70;;
76863;SDS011;65834;52.364;9.754;2023-06-04T06:21:19;3.83;;;1.70;;
76863;SDS011;65834;52.364;9.754;2023-06-04T06:23:49;3.60;;;1.52;;
76863;SDS011;65834;52.364;9.754;2023-06-04T06:26:18;5.37;;;1.70;;
76863;SDS011;65834;52.364;9.754;2023-06-04T06:31:21;3.83;;;1.30;;
76863;SDS011;65834;52.364;9.754;2023-06-04T06:33:52;3.73;;;1.60;;
76863;SDS011;65834;52.364;9.754;2023-06-04T06:36:24;3.07;;;1.70;;
76863;SDS011;65834;52.364;9.754;2023-06-04T06:38:55;4.13;;;1.80;;
76863;SDS011;65834;52.364;9.754;2023-06-04T06:41:24;5.47;;;1.83;;
76863;SDS011;65834;52.364;9.754;2023-06-04T06:43:56;3.50;;;1.53;;
76863;SDS011;65834;52.364;9.754;2023-06-04T06:46:25;5.50;;;2.10;;
76863;SDS011;65834;52.364;9.754;2023-06-04T06:48:55;5.20;;;1.87;;
76863;SDS011;65834;52.364;9.754;2023-06-04T06:51:27;6.83;;;2.00;;
76863;SDS011;65834;52.364;9.754;2023-06-04T06:53:57;4.82;;;1.60;;
76863;SDS011;65834;52.364;9.754;2023-06-04T06:56:26;6.90;;;2.07;;
76863;SDS011;65834;52.364;9.754;2023-06-04T06:58:57;5.90;;;2.00;;
76863;SDS011;65834;52.364;9.754;2023-06-04T07:01:27;6.60;;;1.87;;
76863;SDS011;65834;52.364;9.754;2023-06-04T07:03:56;4.60;;;1.50;;
76863;SDS011;65834;52.364;9.754;2023-06-04T07:06:29;5.90;;;1.80;;
76863;SDS011;65834;52.364;9.754;2023-06-04T07:08:58;4.85;;;1.50;;
76863;SDS011;65834;52.364;9.754;2023-06-04T07:11:28;3.37;;;1.60;;
76863;SDS011;65834;52.364;9.754;2023-06-04T07:13:58;3.63;;;1.67;;
76863;SDS011;65834;52.364;9.754;2023-06-04T07:16:28;6.37;;;1.70;;
76863;SDS011;65834;52.364;9.754;2023-06-04T07:19:00;2.77;;;1.80;;
76863;SDS011;65834;52.364;9.754;2023-06-04T07:21:32;7.17;;;2.20;;
76863;SDS011;65834;52.364;9.754;2023-06-04T07:24:02;4.15;;;1.63;;
76863;SDS011;65834;52.364;9.754;2023-06-04T07:26:32;5.38;;;2.00;;
76863;SDS011;65834;52.364;9.754;2023-06-04T07:29:01;3.13;;;1.57;;
76863;SDS011;65834;52.364;9.754;2023-06-04T07:31:31;6.10;;;1.87;;
76863;SDS011;65834;52.364;9.754;2023-06-04T07:34:01;7.10;;;1.70;;
76863;SDS011;65834;52.364;9.754;2023-06-04T07:36:35;3.83;;;1.40;;
76863;SDS011;65834;52.364;9.754;2023-06-04T07:39:08;3.83;;;1.37;;
76863;SDS011;65834;52.364;9.754;2023-06-04T07:41:37;3.57;;;1.60;;
76863;SDS011;65834;52.364;9.754;2023-06-04T07:44:07;4.70;;;1.63;;
76863;SDS011;65834;52.364;9.754;2023-06-04T07:46:37;5.00;;;1.50;;
76863;SDS011;65834;52.364;9.754;2023-06-04T07:49:06;5.73;;;2.03;;
76863;SDS011;65834;52.364;9.754;2023-06-04T07:51:39;2.58;;;1.30;;
76863;SDS011;65834;52.364;9.754;2023-06-04T07:54:09;4.60;;;1.67;;
76863;SDS011;65834;52.364;9.754;2023-06-04T07:56:40;3.65;;;1.48;;
76863;SDS011;65834;52.364;9.754;2023-06-04T07:59:10;5.23;;;1.90;;
76863;SDS011;65834;52.364;9.754;2023-06-04T08:01:39;6.18;;;1.80;;
76863;SDS011;65834;52.364;9.754;2023-06-04T08:04:09;5.03;;;1.90;;
76863;SDS011;65834;52.364;9.754;2023-06-04T08:06:41;6.63;;;1.80;;
76863;SDS011;65834;52.364;9.754;2023-06-04T08:09:11;2.53;;;1.40;;
76863;SDS011;65834;52.364;9.754;2023-06-04T08:11:41;2.58;;;1.60;;
76863;SDS011;65834;52.364;9.754;2023-06-04T08:14:11;4.60;;;1.40;;
76863;SDS011;65834;52.364;9.754;2023-06-04T08:16:41;3.70;;;1.45;;
76863;SDS011;65834;52.364;9.754;2023-06-04T08:19:11;4.00;;;1.70;;
76863;SDS011;65834;52.364;9.754;2023-06-04T08:21:43;4.38;;;1.73;;
76863;SDS011;65834;52.364;9.754;2023-06-04T08:24:13;5.28;;;1.67;;
76863;SDS011;65834;52.364;9.754;2023-06-04T08:26:43;2.58;;;1.33;;
76863;SDS011;65834;52.364;9.754;2023-06-04T08:29:14;4.55;;;1.48;;
76863;SDS011;65834;52.364;9.754;2023-06-04T08:31:43;3.75;;;1.55;;
76863;SDS011;65834;52.364;9.754;2023-06-04T08:34:13;6.10;;;1.85;;
76863;SDS011;65834;52.364;9.754;2023-06-04T08:36:45;6.68;;;1.90;;
76863;SDS011;65834;52.364;9.754;2023-06-04T08:39:15;3.90;;;1.60;;
76863;SDS011;65834;52.364;9.754;2023-06-04T08:41:45;3.95;;;1.77;;
76863;SDS011;65834;52.364;9.754;2023-06-04T08:44:20;5.90;;;1.70;;
76863;SDS011;65834;52.364;9.754;2023-06-04T08:46:50;4.07;;;1.60;;
76863;SDS011;65834;52.364;9.754;2023-06-04T08:49:21;3.38;;;1.38;;
76863;SDS011;65834;52.364;9.754;2023-06-04T08:51:53;5.20;;;1.50;;
76863;SDS011;65834;52.364;9.754;2023-06-04T08:54:25;4.40;;;1.70;;
76863;SDS011;65834;52.364;9.754;2023-06-04T08:56:55;5.18;;;1.40;;
76863;SDS011;65834;52.364;9.754;2023-06-04T08:59:25;6.45;;;1.63;;
76863;SDS011;65834;52.364;9.754;2023-06-04T09:01:56;3.05;;;1.30;;
76863;SDS011;65834;52.364;9.754;2023-06-04T09:04:27;3.83;;;1.50;;
76863;SDS011;65834;52.364;9.754;2023-06-04T09:07:01;5.35;;;1.83;;
76863;SDS011;65834;52.364;9.754;2023-06-04T09:09:32;4.60;;;1.45;;
76863;SDS011;65834;52.364;9.754;2023-06-04T09:12:08;5.07;;;1.70;;
76863;SDS011;65834;52.364;9.754;2023-06-04T09:14:39;5.82;;;1.42;;
76863;SDS011;65834;52.364;9.754;2023-06-04T09:17:09;4.15;;;1.30;;
76863;SDS011;65834;52.364;9.754;2023-06-04T09:19:38;3.20;;;1.15;;
76863;SDS011;65834;52.364;9.754;2023-06-04T09:22:10;4.05;;;1.40;;
76863;SDS011;65834;52.364;9.754;2023-06-04T09:24:40;3.78;;;1.33;;
76863;SDS011;65834;52.364;9.754;2023-06-04T09:27:13;5.68;;;1.50;;
76863;SDS011;65834;52.364;9.754;2023-06-04T09:29:50;4.07;;;1.33;;
76863;SDS011;65834;52.364;9.754;2023-06-04T09:32:20;5.40;;;1.40;;
76863;SDS011;65834;52.364;9.754;2023-06-04T09:34:50;3.88;;;1.63;;
76863;SDS011;65834;52.364;9.754;2023-06-04T09:37:23;6.22;;;1.70;;
76863;SDS011;65834;52.364;9.754;2023-06-04T09:39:53;5.25;;;1.70;;
76863;SDS011;65834;52.364;9.754;2023-06-04T09:42:23;4.57;;;1.70;;
76863;SDS011;65834;52.364;9.754;2023-06-04T09:44:53;4.78;;;1.63;;
76863;SDS011;65834;52.364;9.754;2023-06-04T09:47:22;4.45;;;1.88;;
76863;SDS011;65834;52.364;9.754;2023-06-04T09:49:54;3.88;;;1.50;;
76863;SDS011;65834;52.364;9.754;2023-06-04T09:52:34;4.63;;;1.60;;
76863;SDS011;65834;52.364;9.754;2023-06-04T09:55:04;3.00;;;1.30;;
76863;SDS011;65834;52.364;9.754;2023-06-04T09:57:46;3.75;;;1.38;;
76863;SDS011;65834;52.364;9.754;2023-06-04T10:00:17;3.90;;;1.45;;
76863;SDS011;65834;52.364;9.754;2023-06-04T10:02:49;6.60;;;1.40;;
76863;SDS011;65834;52.364;9.754;2023-06-04T10:05:25;7.47;;;1.90;;
76863;SDS011;65834;52.364;9.754;2023-06-04T10:07:58;6.32;;;1.80;;
76863;SDS011;65834;52.364;9.754;2023-06-04T10:10:34;4.03;;;1.60;;
76863;SDS011;65834;52.364;9.754;2023-06-04T10:13:06;3.13;;;1.38;;
76863;SDS011;65834;52.364;9.754;2023-06-04T10:15:43;4.25;;;1.50;;
76863;SDS011;65834;52.364;9.754;2023-06-04T10:18:14;3.78;;;1.40;;
76863;SDS011;65834;52.364;9.754;2023-06-04T10:20:44;3.67;;;1.52;;
76863;SDS011;65834;52.364;9.754;2023-06-04T10:23:17;5.68;;;1.50;;
76863;SDS011;65834;52.364;9.754;2023-06-04T10:25:48;4.72;;;1.48;;
76863;SDS011;65834;52.364;9.754;2023-06-04T10:28:20;3.38;;;1.30;;
76863;SDS011;65834;52.364;9.754;2023-06-04T10:30:51;4.03;;;1.50;;
76863;SDS011;65834;52.364;9.754;2023-06-04T10:33:21;4.45;;;1.30;;
76863;SDS011;65834;52.364;9.754;2023-06-04T10:35:53;5.03;;;1.55;;
76863;SDS011;65834;52.364;9.754;2023-06-04T10:38:26;3.45;;;1.20;;
76863;SDS011;65834;52.364;9.754;2023-06-04T10:40:57;7.22;;;1.58;;
76863;SDS011;65834;52.364;9.754;2023-06-04T10:43:29;3.08;;;1.38;;
76863;SDS011;65834;52.364;9.754;2023-06-04T10:45:58;2.55;;;1.10;;
76863;SDS011;65834;52.364;9.754;2023-06-04T10:48:47;2.15;;;1.10;;
76863;SDS011;65834;52.364;9.754;2023-06-04T10:51:28;3.80;;;1.20;;
76863;SDS011;65834;52.364;9.754;2023-06-04T10:54:02;2.65;;;1.05;;
76863;SDS011;65834;52.364;9.754;2023-06-04T10:59:12;5.25;;;1.38;;
76863;SDS011;65834;52.364;9.754;2023-06-04T11:01:43;4.63;;;1.40;;
76863;SDS011;65834;52.364;9.754;2023-06-04T11:04:19;4.97;;;1.60;;
76863;SDS011;65834;52.364;9.754;2023-06-04T11:06:59;3.63;;;1.35;;
76863;SDS011;65834;52.364;9.754;2023-06-04T11:09:33;2.30;;;1.23;;
76863;SDS011;65834;52.364;9.754;2023-06-04T11:12:04;2.97;;;1.15;;
76863;SDS011;65834;52.364;9.754;2023-06-04T11:14:35;3.33;;;1.48;;
76863;SDS011;65834;52.364;9.754;2023-06-04T11:17:10;3.92;;;1.40;;
76863;SDS011;65834;52.364;9.754;2023-06-04T11:19:41;4.93;;;1.45;;
76863;SDS011;65834;52.364;9.754;2023-06-04T11:22:11;6.55;;;1.50;;
76863;SDS011;65834;52.364;9.754;2023-06-04T11:24:43;3.97;;;1.30;;
76863;SDS011;65834;52.364;9.754;2023-06-04T11:31:09;3.10;;;1.20;;
76863;SDS011;65834;52.364;9.754;2023-06-04T11:33:42;5.43;;;1.60;;
76863;SDS011;65834;52.364;9.754;2023-06-04T11:36:21;6.10;;;1.60;;
76863;SDS011;65834;52.364;9.754;2023-06-04T11:38:55;4.78;;;1.52;;
76863;SDS011;65834;52.364;9.754;2023-06-04T11:41:29;5.57;;;1.50;;
76863;SDS011;65834;52.364;9.754;2023-06-04T11:44:01;2.72;;;1.30;;
76863;SDS011;65834;52.364;9.754;2023-06-04T11:46:39;2.90;;;1.40;;
76863;SDS011;65834;52.364;9.754;2023-06-04T11:49:11;2.25;;;1.30;;
76863;SDS011;65834;52.364;9.754;2023-06-04T11:51:47;3.22;;;1.30;;
76863;SDS011;65834;52.364;9.754;2023-06-04T11:54:17;2.63;;;1.25;;
76863;SDS011;65834;52.364;9.754;2023-06-04T12:00:35;2.70;;;1.35;;
76863;SDS011;65834;52.364;9.754;2023-06-04T12:03:05;2.65;;;1.23;;
76863;SDS011;65834;52.364;9.754;2023-06-04T12:05:35;2.60;;;1.42;;
76863;SDS011;65834;52.364;9.754;2023-06-04T12:08:05;2.45;;;1.30;;
76863;SDS011;65834;52.364;9.754;2023-06-04T12:14:33;2.92;;;1.42;;
76863;SDS011;65834;52.364;9.754;2023-06-04T12:17:08;4.25;;;1.38;;
76863;SDS011;65834;52.364;9.754;2023-06-04T12:19:45;3.90;;;1.42;;
76863;SDS011;65834;52.364;9.754;2023-06-04T12:22:16;3.63;;;1.48;;
76863;SDS011;65834;52.364;9.754;2023-06-04T12:24:46;3.45;;;1.38;;
76863;SDS011;65834;52.364;9.754;2023-06-04T12:27:20;2.55;;;1.30;;
76863;SDS011;65834;52.364;9.754;2023-06-04T12:29:56;4.35;;;1.55;;
76863;SDS011;65834;52.364;9.754;2023-06-04T12:32:29;1.92;;;1.10;;
76863;SDS011;65834;52.364;9.754;2023-06-04T12:34:59;4.05;;;1.73;;
76863;SDS011;65834;52.364;9.754;2023-06-04T12:37:28;2.28;;;1.35;;
76863;SDS011;65834;52.364;9.754;2023-06-04T12:39:58;2.33;;;1.20;;
76863;SDS011;65834;52.364;9.754;2023-06-04T12:42:29;3.97;;;1.25;;
76863;SDS011;65834;52.364;9.754;2023-06-04T12:44:59;4.35;;;1.50;;
76863;SDS011;65834;52.364;9.754;2023-06-04T12:47:31;5.22;;;1.60;;
76863;SDS011;65834;52.364;9.754;2023-06-04T12:50:00;3.80;;;1.30;;
76863;SDS011;65834;52.364;9.754;2023-06-04T12:52:30;3.70;;;1.42;;
76863;SDS011;65834;52.364;9.754;2023-06-04T12:54:59;4.53;;;1.33;;
76863;SDS011;65834;52.364;9.754;2023-06-04T12:57:29;3.83;;;1.33;;
76863;SDS011;65834;52.364;9.754;2023-06-04T12:59:59;2.42;;;1.20;;
76863;SDS011;65834;52.364;9.754;2023-06-04T13:02:33;3.65;;;1.50;;
76863;SDS011;65834;52.364;9.754;2023-06-04T13:05:02;4.82;;;1.77;;
76863;SDS011;65834;52.364;9.754;2023-06-04T13:07:32;2.35;;;1.25;;
76863;SDS011;65834;52.364;9.754;2023-06-04T13:10:02;3.55;;;1.50;;
76863;SDS011;65834;52.364;9.754;2023-06-04T13:12:32;2.58;;;1.60;;
76863;SDS011;65834;52.364;9.754;2023-06-04T13:15:02;4.03;;;1.50;;
76863;SDS011;65834;52.364;9.754;2023-06-04T13:17:35;4.72;;;1.52;;
76863;SDS011;65834;52.364;9.754;2023-06-04T13:20:05;5.93;;;1.98;;
76863;SDS011;65834;52.364;9.754;2023-06-04T13:22:36;5.38;;;1.42;;
76863;SDS011;65834;52.364;9.754;2023-06-04T13:25:07;3.63;;;1.55;;
76863;SDS011;65834;52.364;9.754;2023-06-04T13:27:37;4.60;;;1.63;;
76863;SDS011;65834;52.364;9.754;2023-06-04T13:30:07;3.33;;;1.42;;
76863;SDS011;65834;52.364;9.754;2023-06-04T13:32:40;5.20;;;1.70;;
76863;SDS011;65834;52.364;9.754;2023-06-04T13:35:09;3.70;;;1.50;;
76863;SDS011;65834;52.364;9.754;2023-06-04T13:37:39;6.20;;;1.45;;
76863;SDS011;65834;52.364;9.754;2023-06-04T13:40:09;4.00;;;1.50;;
76863;SDS011;65834;52.364;9.754;2023-06-04T13:42:39;7.63;;;1.70;;
76863;SDS011;65834;52.364;9.754;2023-06-04T13:45:09;2.60;;;1.35;;
76863;SDS011;65834;52.364;9.754;2023-06-04T13:47:41;3.67;;;1.65;;
76863;SDS011;65834;52.364;9.754;2023-06-04T13:50:11;5.53;;;1.70;;
76863;SDS011;65834;52.364;9.754;2023-06-04T13:52:41;4.55;;;1.70;;
76863;SDS011;65834;52.364;9.754;2023-06-04T13:55:11;4.43;;;1.50;;
76863;SDS011;65834;52.364;9.754;2023-06-04T13:57:41;9.77;;;1.63;;
76863;SDS011;65834;52.364;9.754;2023-06-04T14:00:11;11.43;;;1.90;;
76863;SDS011;65834;52.364;9.754;2023-06-04T14:02:44;4.45;;;1.65;;
76863;SDS011;65834;52.364;9.754;2023-06-04T14:05:14;3.25;;;1.45;;
76863;SDS011;65834;52.364;9.754;2023-06-04T14:07:44;4.75;;;1.90;;
76863;SDS011;65834;52.364;9.754;2023-06-04T14:10:14;6.25;;;1.55;;
76863;SDS011;65834;52.364;9.754;2023-06-04T14:12:43;4.13;;;1.67;;
76863;SDS011;65834;52.364;9.754;2023-06-04T14:15:13;5.68;;;1.67;;
76863;SDS011;65834;52.364;9.754;2023-06-04T14:17:47;5.38;;;1.80;;
76863;SDS011;65834;52.364;9.754;2023-06-04T14:20:16;6.47;;;1.83;;
76863;SDS011;65834;52.364;9.754;2023-06-04T14:22:46;5.22;;;1.70;;
76863;SDS011;65834;52.364;9.754;2023-06-04T14:25:15;4.97;;;1.95;;
76863;SDS011;65834;52.364;9.754;2023-06-04T14:27:45;7.28;;;1.83;;
76863;SDS011;65834;52.364;9.754;2023-06-04T14:30:14;2.75;;;1.38;;
76863;SDS011;65834;52.364;9.754;2023-06-04T14:32:47;3.85;;;1.48;;
76863;SDS011;65834;52.364;9.754;2023-06-04T14:35:16;4.72;;;1.83;;
76863;SDS011;65834;52.364;9.754;2023-06-04T14:37:46;3.85;;;1.50;;
76863;SDS011;65834;52.364;9.754;2023-06-04T14:40:15;5.22;;;1.70;;
76863;SDS011;65834;52.364;9.754;2023-06-04T14:42:45;4.68;;;1.48;;
76863;SDS011;65834;52.364;9.754;2023-06-04T14:45:14;4.25;;;1.45;;
76863;SDS011;65834;52.364;9.754;2023-06-04T14:47:47;4.57;;;1.60;;
76863;SDS011;65834;52.364;9.754;2023-06-04T14:50:37;2.92;;;1.30;;
76863;SDS011;65834;52.364;9.754;2023-06-04T14:53:07;4.47;;;1.50;;
76863;SDS011;65834;52.364;9.754;2023-06-04T14:55:37;4.72;;;1.75;;
76863;SDS011;65834;52.364;9.754;2023-06-04T14:58:07;5.43;;;1.90;;
76863;SDS011;65834;52.364;9.754;2023-06-04T15:00:37;3.03;;;1.50;;
76863;SDS011;65834;52.364;9.754;2023-06-04T15:03:09;4.13;;;1.77;;
76863;SDS011;65834;52.364;9.754;2023-06-04T15:05:39;4.35;;;1.65;;
76863;SDS011;65834;52.364;9.754;2023-06-04T15:08:09;5.82;;;1.70;;
76863;SDS011;65834;52.364;9.754;2023-06-04T15:10:38;4.90;;;1.85;;
76863;SDS011;65834;52.364;9.754;2023-06-04T15:13:08;5.60;;;1.75;;
76863;SDS011;65834;52.364;9.754;2023-06-04T15:15:37;4.90;;;1.50;;
76863;SDS011;65834;52.364;9.754;2023-06-04T15:18:10;3.55;;;1.70;;
76863;SDS011;65834;52.364;9.754;2023-06-04T15:20:39;5.40;;;1.98;;
76863;SDS011;65834;52.364;9.754;2023-06-04T15:23:09;5.38;;;1.55;;
76863;SDS011;65834;52.364;9.754;2023-06-04T15:25:38;4.82;;;1.75;;
76863;SDS011;65834;52.364;9.754;2023-06-04T15:28:08;4.85;;;1.90;;
76863;SDS011;65834;52.364;9.754;2023-06-04T15:30:37;4.15;;;1.70;;